Rakitna Rakitna

Učna pot


Napoved ravni onesnaženosti z delci PM10 več informacij Air pollution


Požarna ogroženost več informacij Fire risk


Moja kamera več informacij My webcam


Cestna kamera več informacij Road camera


ARSO, spremljajte nas več informacij


Obiščite še:

Template documentacija
in prenos

in še drugo stran



Posebna pozornost v zvezi z vremenskimi dogajanji ni potrebna.    Posebna pozornost v zvezi z vremenskimi dogajanji ni potrebna.

METAR v bližini

   
LJLJ - Ljubljana
Posodobljeno: 13-12-2018 12:00
oblačno  
oblačno  
   Veter: Sever 5.6 km/h
Veter: Sever 5.6 km/h
Temperatura: -1°C
Občutek mraza: -3°C
Točka rosišča: -2°C
Vlažnost: 93%
Zračni tlak: 1018 hPa
Oblaki: oblačno
Vidljivost: več kot 10 km
Podrobnosti o oblakih: nekaj oblakov 2000 ft,
oblačno 3300 ft
LJLJ 131100Z 36003KT 9999 FEW020 OVC033 M01/M02 Q1018 NOSIG
LJCE - Cerklje ob Krki
Posodobljeno: 13-12-2018 12:00
oblačno  
oblačno  
   Veter: VJV 11.1 km/h
Veter: VJV 11.1 km/h
Temperatura: 0°C
Občutek mraza: -3°C
Točka rosišča: -2°C
Vlažnost: 87%
Zračni tlak: 1020 hPa
Oblaki: oblačno
Vidljivost: več kot 10 km
Podrobnosti o oblakih: oblačno 1500 ft
LJCE 131100Z 11006KT 9999 OVC015 00/M02 Q1020 RMK WHT
LJMB - Maribor
Posodobljeno: 13-12-2018 12:00
oblačno  
oblačno  
   Veter: različen 3.7 km/h
Veter: različen 3.7 km/h
Temperatura: 0°C
Točka rosišča: -2°C
Vlažnost: 87%
Zračni tlak: 1020 hPa
Oblaki: oblačno
Vidljivost: več kot 10 km
Podrobnosti o oblakih: pretežno oblačno 1300 ft,
oblačno 2000 ft
LJMB 131100Z VRB02KT 9999 BKN013 OVC020 00/M02 Q1020
LJPZ - Portorož
Posodobljeno: 13-12-2018 12:00
oblačno  
oblačno  
   Veter: Vzhod 14.8 km/h
Veter: Vzhod 14.8 km/h
Temperatura: 6°C
Občutek mraza: 3°C
Točka rosišča: -2°C
Vlažnost: 57%
Zračni tlak: 1016 hPa
Oblaki: oblačno
Vidljivost: več kot 10 km
Podrobnosti o oblakih: nekaj oblakov 4300 ft,
pretežno oblačno 7000 ft,
oblačno 8000 ft
LJPZ 131100Z 08008KT 040V110 9999 FEW043 BKN070 OVC080 06/M02 Q1016
LDRI - Rijeka, Airport, Croatia
Posodobljeno: 13-12-2018 12:00
pretežno oblačno  
pretežno oblačno  
   Veter: VSV 20.4 km/h
Veter: VSV 20.4 km/h
Temperatura: 6°C
Občutek mraza: 2°C
Točka rosišča: -4°C
Vlažnost: 49%
Zračni tlak: 1016 hPa
Oblaki: pretežno oblačno
Vidljivost: več kot 10 km
Podrobnosti o oblakih: nekaj oblakov 1000 ft,
delno oblačno 4300 ft,
pretežno oblačno 6600 ft
LDRI 131100Z 06011KT 020V120 9999 FEW010 SCT043 BKN066 06/M04 Q1016
LOWK - Klagenfurt, Airport, Avstia
Posodobljeno: 13-12-2018 11:50
pretežno oblačno  
pretežno oblačno  
   Veter: različen 1.9 km/h
Veter: različen 1.9 km/h
Temperatura: 0°C
Točka rosišča: -3°C
Vlažnost: 80%
Zračni tlak: 1018 hPa
Oblaki: pretežno oblačno
Vidljivost: več kot 10 km
Podrobnosti o oblakih: nekaj oblakov 1500 ft,
delno oblačno 4200 ft,
pretežno oblačno 6000 ft
LOWK 131050Z VRB01KT 9999 FEW015 SCT042 BKN060 M00/M03 Q1018 NOSIG

Script developed by  Saratoga-weather.org Adapted for the template by  Weerstation Leuven

Vremenski podatki so objavljeni na:

Weather Underground

Slovenska vremenska mreža

WeatherlinkIP

MapView

Geostik

Oprema, ki se uporablja:

Vremenska postaja
Davis VP2+ ventilirana

Vremenski program
WeatherLink

Vremenski server
Shuttle XS35V4

Ponudnik
Vremensko društvo ZEVS

Davis VP2+ ventilirana

WeatherLink

Shuttle XS35V4

Vremensko društvo ZEVS

Meteorološki podatki vremenske postaje Rakitna so neuradni, meteorološka postaja sama pa ni del državne mreže Agencije Republike Slovenije za okolje (ARSO),
je pa vključena v Vremensko društvo ZEVS. Prikazani podatki so izmerjeni točno, vendar so zgolj informativni in nimajo značaja uradnega podatka.

Podatke meri vremenska postaja "Davis VP2+ ventilirana" od 05.03.2011 dalje.

Opozarjamo, da ne prevzamemo odgovornosti za morebitno nastalo škodo, ki bi nastala zaradi odločitve, sprejete na osnovi teh podatkov!